< < Back
Terminal Aerodrome Forecast


Current Version              Previous Versions:   1  2  3  4  5  6  7  8  9  

Terminal Aerodrome Forecast

823
FTUS42 KTAE 260535
TAFTLH
TAF
KTLH 260535Z 2606/2706 07007KT P6SM SCT250=

Latest METAR

004
SAUS80 KWBC 270100
MTRTLH
METAR KTLH 270053Z 09006KT 10SM SCT060 30/22 A3000 RMK AO2 SLP158
T03000222


USA.gov is the U.S. government's official web portal to all federal, state and local government web resources and services.